sensor_id;sensor_type;location;lat;lon;timestamp;pressure;altitude;pressure_sealevel;temperature;humidity
34586;BME280;20816;50.950;11.108;2022-11-15T00:00:55;98160.13;;;10.36;99.66
34586;BME280;20816;50.950;11.108;2022-11-15T00:03:24;98164.41;;;10.38;99.90
34586;BME280;20816;50.950;11.108;2022-11-15T00:05:52;98160.19;;;10.33;100.00
34586;BME280;20816;50.950;11.108;2022-11-15T00:08:19;98153.59;;;10.18;100.00
34586;BME280;20816;50.950;11.108;2022-11-15T00:10:59;98157.13;;;10.16;100.00
34586;BME280;20816;50.950;11.108;2022-11-15T00:13:27;98149.41;;;10.09;100.00
34586;BME280;20816;50.950;11.108;2022-11-15T00:16:00;98154.66;;;10.11;100.00
34586;BME280;20816;50.950;11.108;2022-11-15T00:18:28;98162.44;;;10.14;100.00
34586;BME280;20816;50.950;11.108;2022-11-15T00:20:55;98157.03;;;10.20;100.00
34586;BME280;20816;50.950;11.108;2022-11-15T00:23:22;98152.69;;;10.18;100.00
34586;BME280;20816;50.950;11.108;2022-11-15T00:25:55;98155.31;;;10.19;100.00
34586;BME280;20816;50.950;11.108;2022-11-15T00:28:23;98156.28;;;10.15;100.00
34586;BME280;20816;50.950;11.108;2022-11-15T00:30:50;98157.34;;;10.08;100.00
34586;BME280;20816;50.950;11.108;2022-11-15T00:33:17;98151.13;;;10.12;100.00
34586;BME280;20816;50.950;11.108;2022-11-15T00:35:44;98147.53;;;10.15;100.00
34586;BME280;20816;50.950;11.108;2022-11-15T00:38:11;98153.59;;;10.18;100.00
34586;BME280;20816;50.950;11.108;2022-11-15T00:40:37;98151.72;;;10.22;100.00
34586;BME280;20816;50.950;11.108;2022-11-15T00:43:04;98142.94;;;10.24;100.00
34586;BME280;20816;50.950;11.108;2022-11-15T00:45:30;98149.72;;;10.31;100.00
34586;BME280;20816;50.950;11.108;2022-11-15T00:47:57;98142.59;;;10.36;99.84
34586;BME280;20816;50.950;11.108;2022-11-15T00:50:23;98140.94;;;10.32;99.66
34586;BME280;20816;50.950;11.108;2022-11-15T00:52:50;98145.34;;;10.32;100.00
34586;BME280;20816;50.950;11.108;2022-11-15T00:55:18;98142.66;;;10.35;99.80
34586;BME280;20816;50.950;11.108;2022-11-15T00:57:46;98153.16;;;10.33;100.00
34586;BME280;20816;50.950;11.108;2022-11-15T01:00:13;98146.13;;;10.35;99.88
34586;BME280;20816;50.950;11.108;2022-11-15T01:02:40;98148.97;;;10.28;100.00
34586;BME280;20816;50.950;11.108;2022-11-15T01:05:07;98142.66;;;10.33;100.00
34586;BME280;20816;50.950;11.108;2022-11-15T01:07:34;98128.81;;;10.28;99.70
34586;BME280;20816;50.950;11.108;2022-11-15T01:10:00;98140.88;;;10.35;100.00
34586;BME280;20816;50.950;11.108;2022-11-15T01:12:27;98136.09;;;10.17;100.00
34586;BME280;20816;50.950;11.108;2022-11-15T01:14:54;98135.38;;;10.12;100.00
34586;BME280;20816;50.950;11.108;2022-11-15T01:17:21;98128.41;;;10.11;100.00
34586;BME280;20816;50.950;11.108;2022-11-15T01:19:47;98130.38;;;10.03;100.00
34586;BME280;20816;50.950;11.108;2022-11-15T01:22:14;98129.03;;;10.19;100.00
34586;BME280;20816;50.950;11.108;2022-11-15T01:24:41;98134.19;;;10.24;100.00
34586;BME280;20816;50.950;11.108;2022-11-15T01:27:08;98130.44;;;10.32;100.00
34586;BME280;20816;50.950;11.108;2022-11-15T01:29:35;98127.53;;;10.43;99.61
34586;BME280;20816;50.950;11.108;2022-11-15T01:32:01;98135.19;;;10.51;99.30
34586;BME280;20816;50.950;11.108;2022-11-15T01:34:28;98122.94;;;10.50;98.55
34586;BME280;20816;50.950;11.108;2022-11-15T01:36:55;98123.13;;;10.44;98.99
34586;BME280;20816;50.950;11.108;2022-11-15T01:39:21;98116.09;;;10.44;99.71
34586;BME280;20816;50.950;11.108;2022-11-15T01:41:48;98123.66;;;10.55;98.97
34586;BME280;20816;50.950;11.108;2022-11-15T01:47:02;98121.16;;;10.52;98.98
34586;BME280;20816;50.950;11.108;2022-11-15T01:49:32;98118.81;;;10.41;99.50
34586;BME280;20816;50.950;11.108;2022-11-15T01:52:02;98118.25;;;10.61;98.49
34586;BME280;20816;50.950;11.108;2022-11-15T01:54:30;98118.63;;;10.47;99.35
34586;BME280;20816;50.950;11.108;2022-11-15T01:57:08;98107.16;;;10.50;98.83
34586;BME280;20816;50.950;11.108;2022-11-15T01:59:38;98106.63;;;10.38;99.37
34586;BME280;20816;50.950;11.108;2022-11-15T02:02:07;98104.50;;;10.51;98.66
34586;BME280;20816;50.950;11.108;2022-11-15T02:04:37;98102.53;;;10.58;98.22
34586;BME280;20816;50.950;11.108;2022-11-15T02:07:08;98094.06;;;10.48;98.19
34586;BME280;20816;50.950;11.108;2022-11-15T02:09:37;98087.97;;;10.48;98.65
34586;BME280;20816;50.950;11.108;2022-11-15T02:12:04;98087.97;;;10.48;98.26
34586;BME280;20816;50.950;11.108;2022-11-15T02:14:33;98085.25;;;10.51;98.24
34586;BME280;20816;50.950;11.108;2022-11-15T02:17:16;98080.88;;;10.50;98.56
34586;BME280;20816;50.950;11.108;2022-11-15T02:27:54;98072.94;;;10.53;97.58
34586;BME280;20816;50.950;11.108;2022-11-15T02:30:34;98068.50;;;10.55;97.74
34586;BME280;20816;50.950;11.108;2022-11-15T02:35:57;98071.44;;;10.44;98.31
34586;BME280;20816;50.950;11.108;2022-11-15T02:40:57;98062.06;;;10.35;97.96
34586;BME280;20816;50.950;11.108;2022-11-15T02:46:41;98055.13;;;10.33;98.27
34586;BME280;20816;50.950;11.108;2022-11-15T02:49:31;98046.59;;;10.26;97.92
34586;BME280;20816;50.950;11.108;2022-11-15T02:51:58;98051.75;;;10.29;98.67
34586;BME280;20816;50.950;11.108;2022-11-15T02:54:29;98047.50;;;10.24;98.68
34586;BME280;20816;50.950;11.108;2022-11-15T02:57:04;98048.44;;;10.21;98.57
34586;BME280;20816;50.950;11.108;2022-11-15T03:03:00;98062.81;;;10.08;99.79
34586;BME280;20816;50.950;11.108;2022-11-15T03:05:37;98064.63;;;10.06;99.82
34586;BME280;20816;50.950;11.108;2022-11-15T03:10:46;98064.59;;;10.07;99.32
34586;BME280;20816;50.950;11.108;2022-11-15T03:13:24;98068.16;;;10.05;99.63
34586;BME280;20816;50.950;11.108;2022-11-15T03:16:02;98067.16;;;10.09;99.61
34586;BME280;20816;50.950;11.108;2022-11-15T03:18:32;98065.44;;;10.08;99.32
34586;BME280;20816;50.950;11.108;2022-11-15T03:21:04;98069.88;;;10.06;99.46
34586;BME280;20816;50.950;11.108;2022-11-15T03:23:32;98065.66;;;10.00;99.37
34586;BME280;20816;50.950;11.108;2022-11-15T03:26:00;98060.66;;;9.91;100.00
34586;BME280;20816;50.950;11.108;2022-11-15T03:28:37;98061.47;;;9.95;100.00
34586;BME280;20816;50.950;11.108;2022-11-15T03:31:05;98062.47;;;9.89;100.00
34586;BME280;20816;50.950;11.108;2022-11-15T03:33:53;98054.50;;;9.94;99.95
34586;BME280;20816;50.950;11.108;2022-11-15T03:36:23;98055.34;;;9.94;99.52
34586;BME280;20816;50.950;11.108;2022-11-15T03:38:54;98049.16;;;9.97;99.41
34586;BME280;20816;50.950;11.108;2022-11-15T03:41:29;98035.91;;;10.00;98.80
34586;BME280;20816;50.950;11.108;2022-11-15T03:47:06;98029.53;;;10.10;98.26
34586;BME280;20816;50.950;11.108;2022-11-15T03:49:36;98027.59;;;10.15;97.72
34586;BME280;20816;50.950;11.108;2022-11-15T03:52:05;98030.50;;;10.06;98.14
34586;BME280;20816;50.950;11.108;2022-11-15T03:54:32;98032.44;;;9.99;98.43
34586;BME280;20816;50.950;11.108;2022-11-15T03:56:59;98044.84;;;9.94;98.69
34586;BME280;20816;50.950;11.108;2022-11-15T03:59:25;98047.59;;;9.90;98.79
34586;BME280;20816;50.950;11.108;2022-11-15T04:01:52;98039.34;;;9.72;100.00
34586;BME280;20816;50.950;11.108;2022-11-15T04:04:19;98045.66;;;9.65;100.00
34586;BME280;20816;50.950;11.108;2022-11-15T04:06:45;98057.44;;;9.49;100.00
34586;BME280;20816;50.950;11.108;2022-11-15T04:09:12;98052.19;;;9.49;100.00
34586;BME280;20816;50.950;11.108;2022-11-15T04:11:39;98050.88;;;9.33;100.00
34586;BME280;20816;50.950;11.108;2022-11-15T04:14:05;98043.59;;;9.44;100.00
34586;BME280;20816;50.950;11.108;2022-11-15T04:16:32;98045.16;;;9.51;100.00
34586;BME280;20816;50.950;11.108;2022-11-15T04:18:59;98038.88;;;9.57;100.00
34586;BME280;20816;50.950;11.108;2022-11-15T04:21:44;98043.59;;;9.44;100.00
34586;BME280;20816;50.950;11.108;2022-11-15T04:24:29;98045.00;;;9.57;100.00
34586;BME280;20816;50.950;11.108;2022-11-15T04:26:56;98029.41;;;9.51;100.00
34586;BME280;20816;50.950;11.108;2022-11-15T04:29:22;98040.09;;;9.45;100.00
34586;BME280;20816;50.950;11.108;2022-11-15T04:32:06;98038.03;;;9.56;100.00
34586;BME280;20816;50.950;11.108;2022-11-15T04:34:33;98025.47;;;9.67;100.00
34586;BME280;20816;50.950;11.108;2022-11-15T04:36:59;98025.50;;;9.66;100.00
34586;BME280;20816;50.950;11.108;2022-11-15T04:39:42;98021.94;;;9.68;100.00
34586;BME280;20816;50.950;11.108;2022-11-15T04:42:10;98020.88;;;9.75;100.00
34586;BME280;20816;50.950;11.108;2022-11-15T04:44:37;98014.63;;;9.79;100.00
34586;BME280;20816;50.950;11.108;2022-11-15T04:47:03;98014.44;;;9.87;99.82
34586;BME280;20816;50.950;11.108;2022-11-15T04:49:30;98019.69;;;9.87;99.42
34586;BME280;20816;50.950;11.108;2022-11-15T04:51:57;98003.97;;;9.86;99.73
34586;BME280;20816;50.950;11.108;2022-11-15T04:54:24;98010.84;;;9.90;99.36
34586;BME280;20816;50.950;11.108;2022-11-15T04:56:51;98003.06;;;9.87;99.20
34586;BME280;20816;50.950;11.108;2022-11-15T04:59:17;98008.44;;;9.82;99.50
34586;BME280;20816;50.950;11.108;2022-11-15T05:01:44;98017.53;;;9.69;100.00
34586;BME280;20816;50.950;11.108;2022-11-15T05:04:11;98015.81;;;9.68;100.00
34586;BME280;20816;50.950;11.108;2022-11-15T05:06:48;98011.63;;;9.62;100.00
34586;BME280;20816;50.950;11.108;2022-11-15T05:09:16;98008.34;;;9.54;100.00
34586;BME280;20816;50.950;11.108;2022-11-15T05:11:43;98008.41;;;9.51;100.00
34586;BME280;20816;50.950;11.108;2022-11-15T05:14:10;98017.75;;;9.63;100.00
34586;BME280;20816;50.950;11.108;2022-11-15T05:16:37;98016.94;;;9.59;100.00
34586;BME280;20816;50.950;11.108;2022-11-15T05:19:04;98020.72;;;9.49;100.00
34586;BME280;20816;50.950;11.108;2022-11-15T05:21:31;98009.81;;;9.64;100.00
34586;BME280;20816;50.950;11.108;2022-11-15T05:23:58;98007.78;;;9.74;99.63
34586;BME280;20816;50.950;11.108;2022-11-15T05:26:25;98010.19;;;9.81;99.04
34586;BME280;20816;50.950;11.108;2022-11-15T05:28:54;98004.91;;;9.83;98.32
34586;BME280;20816;50.950;11.108;2022-11-15T05:31:21;97996.19;;;9.82;99.19
34586;BME280;20816;50.950;11.108;2022-11-15T05:33:49;97995.97;;;9.90;98.50
34586;BME280;20816;50.950;11.108;2022-11-15T05:36:38;97989.03;;;9.88;98.49
34586;BME280;20816;50.950;11.108;2022-11-15T05:39:07;97998.91;;;9.79;98.97
34586;BME280;20816;50.950;11.108;2022-11-15T05:41:37;97996.97;;;9.84;98.19
34586;BME280;20816;50.950;11.108;2022-11-15T05:44:07;97996.19;;;9.82;98.18
34586;BME280;20816;50.950;11.108;2022-11-15T05:46:37;97987.28;;;9.88;98.19
34586;BME280;20816;50.950;11.108;2022-11-15T05:49:07;97989.94;;;9.87;98.08
34586;BME280;20816;50.950;11.108;2022-11-15T05:51:36;97991.72;;;9.84;97.40
34586;BME280;20816;50.950;11.108;2022-11-15T05:54:03;97989.44;;;9.74;98.77
34586;BME280;20816;50.950;11.108;2022-11-15T05:56:30;98001.56;;;9.78;98.50
34586;BME280;20816;50.950;11.108;2022-11-15T05:58:58;98000.44;;;9.87;97.00
34586;BME280;20816;50.950;11.108;2022-11-15T06:01:26;97999.06;;;9.73;97.64
34586;BME280;20816;50.950;11.108;2022-11-15T06:03:53;98016.63;;;9.71;97.57
34586;BME280;20816;50.950;11.108;2022-11-15T06:06:20;98013.41;;;9.60;98.52
34586;BME280;20816;50.950;11.108;2022-11-15T06:08:46;98026.91;;;9.46;99.33
34586;BME280;20816;50.950;11.108;2022-11-15T06:11:14;98034.75;;;9.48;99.25
34586;BME280;20816;50.950;11.108;2022-11-15T06:13:40;98036.56;;;9.46;99.16
34586;BME280;20816;50.950;11.108;2022-11-15T06:16:07;98031.66;;;9.32;99.51
34586;BME280;20816;50.950;11.108;2022-11-15T06:18:35;98029.22;;;9.24;99.64
34586;BME280;20816;50.950;11.108;2022-11-15T06:21:01;98033.97;;;9.10;100.00
34586;BME280;20816;50.950;11.108;2022-11-15T06:23:31;98031.06;;;8.85;100.00
34586;BME280;20816;50.950;11.108;2022-11-15T06:25:59;98031.44;;;8.72;100.00
34586;BME280;20816;50.950;11.108;2022-11-15T06:28:29;98027.44;;;8.54;100.00
34586;BME280;20816;50.950;11.108;2022-11-15T06:31:01;98029.97;;;8.58;100.00
34586;BME280;20816;50.950;11.108;2022-11-15T06:33:28;98025.25;;;8.74;100.00
34586;BME280;20816;50.950;11.108;2022-11-15T06:35:55;98021.50;;;8.84;100.00
34586;BME280;20816;50.950;11.108;2022-11-15T06:38:22;98032.25;;;8.74;100.00
34586;BME280;20816;50.950;11.108;2022-11-15T06:40:48;98037.53;;;8.72;100.00
34586;BME280;20816;50.950;11.108;2022-11-15T06:43:15;98038.31;;;8.76;100.00
34586;BME280;20816;50.950;11.108;2022-11-15T06:45:42;98040.25;;;8.67;100.00
34586;BME280;20816;50.950;11.108;2022-11-15T06:48:09;98048.09;;;8.67;100.00
34586;BME280;20816;50.950;11.108;2022-11-15T06:50:35;98045.56;;;8.63;100.00
34586;BME280;20816;50.950;11.108;2022-11-15T06:53:05;98042.19;;;8.59;100.00
34586;BME280;20816;50.950;11.108;2022-11-15T06:55:32;98051.03;;;8.55;100.00
34586;BME280;20816;50.950;11.108;2022-11-15T06:57:58;98051.94;;;8.53;100.00
34586;BME280;20816;50.950;11.108;2022-11-15T07:00:25;98046.84;;;8.45;100.00
34586;BME280;20816;50.950;11.108;2022-11-15T07:02:51;98058.97;;;8.51;100.00
34586;BME280;20816;50.950;11.108;2022-11-15T07:05:18;98044.78;;;8.59;100.00
34586;BME280;20816;50.950;11.108;2022-11-15T07:07:51;98040.16;;;8.70;100.00
34586;BME280;20816;50.950;11.108;2022-11-15T07:10:18;98038.66;;;8.60;100.00
34586;BME280;20816;50.950;11.108;2022-11-15T07:12:48;98041.69;;;8.42;100.00
34586;BME280;20816;50.950;11.108;2022-11-15T07:15:19;98051.06;;;8.52;100.00
34586;BME280;20816;50.950;11.108;2022-11-15T07:17:46;98050.50;;;8.39;100.00
34586;BME280;20816;50.950;11.108;2022-11-15T07:20:13;98051.19;;;8.46;100.00
34586;BME280;20816;50.950;11.108;2022-11-15T07:22:41;98052.09;;;8.45;100.00
34586;BME280;20816;50.950;11.108;2022-11-15T07:25:08;98051.97;;;8.51;100.00
34586;BME280;20816;50.950;11.108;2022-11-15T07:27:35;98056.47;;;8.45;100.00
34586;BME280;20816;50.950;11.108;2022-11-15T07:30:02;98049.25;;;8.54;100.00
34586;BME280;20816;50.950;11.108;2022-11-15T07:32:29;98056.09;;;8.61;100.00
34586;BME280;20816;50.950;11.108;2022-11-15T07:34:56;98055.88;;;8.70;100.00
34586;BME280;20816;50.950;11.108;2022-11-15T07:37:23;98058.44;;;8.74;100.00
34586;BME280;20816;50.950;11.108;2022-11-15T07:39:49;98069.88;;;8.69;100.00
34586;BME280;20816;50.950;11.108;2022-11-15T07:42:16;98068.88;;;8.75;100.00
34586;BME280;20816;50.950;11.108;2022-11-15T07:45:01;98073.19;;;8.78;100.00
34586;BME280;20816;50.950;11.108;2022-11-15T07:47:28;98073.13;;;8.81;100.00
34586;BME280;20816;50.950;11.108;2022-11-15T07:49:55;98079.41;;;8.74;100.00
34586;BME280;20816;50.950;11.108;2022-11-15T07:52:22;98075.56;;;8.88;100.00
34586;BME280;20816;50.950;11.108;2022-11-15T07:54:49;98080.28;;;9.10;100.00
34586;BME280;20816;50.950;11.108;2022-11-15T07:57:15;98084.16;;;9.31;100.00
34586;BME280;20816;50.950;11.108;2022-11-15T07:59:42;98078.75;;;9.37;98.99
34586;BME280;20816;50.950;11.108;2022-11-15T08:02:09;98075.06;;;9.44;99.79
34586;BME280;20816;50.950;11.108;2022-11-15T08:04:36;98064.75;;;9.70;99.58
34586;BME280;20816;50.950;11.108;2022-11-15T08:07:02;98057.94;;;9.96;97.38
34586;BME280;20816;50.950;11.108;2022-11-15T08:09:29;98057.84;;;10.30;96.18
34586;BME280;20816;50.950;11.108;2022-11-15T08:11:56;98059.00;;;10.51;95.08
34586;BME280;20816;50.950;11.108;2022-11-15T08:14:22;98052.25;;;10.70;92.74
34586;BME280;20816;50.950;11.108;2022-11-15T08:16:49;98056.94;;;10.88;91.79
34586;BME280;20816;50.950;11.108;2022-11-15T08:19:16;98040.47;;;11.10;91.23
34586;BME280;20816;50.950;11.108;2022-11-15T08:21:42;98048.97;;;11.18;90.33
34586;BME280;20816;50.950;11.108;2022-11-15T08:24:10;98037.94;;;11.33;89.87
34586;BME280;20816;50.950;11.108;2022-11-15T08:26:37;98030.91;;;11.34;89.21
34586;BME280;20816;50.950;11.108;2022-11-15T08:29:04;98028.69;;;11.46;88.71
34586;BME280;20816;50.950;11.108;2022-11-15T08:31:31;98028.69;;;11.46;88.36
34586;BME280;20816;50.950;11.108;2022-11-15T08:33:57;98034.13;;;11.67;87.92
34586;BME280;20816;50.950;11.108;2022-11-15T08:36:24;98032.78;;;11.80;86.62
34586;BME280;20816;50.950;11.108;2022-11-15T08:38:51;98030.75;;;11.88;86.03
34586;BME280;20816;50.950;11.108;2022-11-15T08:41:32;98017.94;;;12.02;85.45
34586;BME280;20816;50.950;11.108;2022-11-15T08:43:59;98027.13;;;12.16;84.64
34586;BME280;20816;50.950;11.108;2022-11-15T08:46:26;98014.81;;;12.16;83.46
34586;BME280;20816;50.950;11.108;2022-11-15T08:48:52;98023.28;;;12.24;83.89
34586;BME280;20816;50.950;11.108;2022-11-15T08:51:19;98019.00;;;12.44;83.48
34586;BME280;20816;50.950;11.108;2022-11-15T08:53:46;98013.91;;;12.62;82.67
34586;BME280;20816;50.950;11.108;2022-11-15T08:56:14;98004.09;;;12.88;81.66
34586;BME280;20816;50.950;11.108;2022-11-15T08:58:41;97996.94;;;13.12;80.75
34586;BME280;20816;50.950;11.108;2022-11-15T09:01:19;98000.38;;;13.36;80.82
34586;BME280;20816;50.950;11.108;2022-11-15T09:03:47;97996.84;;;13.56;79.78
34586;BME280;20816;50.950;11.108;2022-11-15T09:06:14;98005.47;;;13.59;79.15
34586;BME280;20816;50.950;11.108;2022-11-15T09:08:41;97996.78;;;13.78;78.80
34586;BME280;20816;50.950;11.108;2022-11-15T09:11:15;97995.06;;;13.77;78.15
34586;BME280;20816;50.950;11.108;2022-11-15T09:13:44;97998.00;;;13.89;78.19
34586;BME280;20816;50.950;11.108;2022-11-15T09:16:10;97998.00;;;13.89;77.67
34586;BME280;20816;50.950;11.108;2022-11-15T09:18:38;97995.09;;;13.95;77.68
34586;BME280;20816;50.950;11.108;2022-11-15T09:21:05;97991.94;;;14.06;77.31
34586;BME280;20816;50.950;11.108;2022-11-15T09:23:32;97994.97;;;14.17;77.40
34586;BME280;20816;50.950;11.108;2022-11-15T09:26:00;97991.69;;;14.12;76.86
34586;BME280;20816;50.950;11.108;2022-11-15T09:28:28;97979.25;;;14.14;76.61
34586;BME280;20816;50.950;11.108;2022-11-15T09:31:00;97984.69;;;14.11;77.48
34586;BME280;20816;50.950;11.108;2022-11-15T09:33:27;97991.94;;;14.06;76.75
34586;BME280;20816;50.950;11.108;2022-11-15T09:36:17;97988.22;;;13.91;77.33
34586;BME280;20816;50.950;11.108;2022-11-15T09:38:43;97979.09;;;13.98;77.67
34586;BME280;20816;50.950;11.108;2022-11-15T09:49:04;97980.75;;;13.62;77.49
34586;BME280;20816;50.950;11.108;2022-11-15T09:51:37;97970.19;;;13.62;78.13
34586;BME280;20816;50.950;11.108;2022-11-15T09:57:17;97976.44;;;13.59;78.33
34586;BME280;20816;50.950;11.108;2022-11-15T10:05:40;97966.19;;;13.72;77.85
34586;BME280;20816;50.950;11.108;2022-11-15T10:11:02;97956.97;;;14.01;76.64
34586;BME280;20816;50.950;11.108;2022-11-15T10:13:51;97951.38;;;14.07;76.15
34586;BME280;20816;50.950;11.108;2022-11-15T10:24:27;97940.41;;;15.07;72.61
34586;BME280;20816;50.950;11.108;2022-11-15T10:26:55;97931.72;;;15.21;71.83
34586;BME280;20816;50.950;11.108;2022-11-15T10:29:24;97934.91;;;15.45;70.88
34586;BME280;20816;50.950;11.108;2022-11-15T10:31:52;97935.00;;;15.61;70.76
34586;BME280;20816;50.950;11.108;2022-11-15T10:34:22;97926.47;;;15.72;70.07
34586;BME280;20816;50.950;11.108;2022-11-15T10:36:59;97930.44;;;15.80;69.11
34586;BME280;20816;50.950;11.108;2022-11-15T10:39:28;97915.31;;;15.82;68.95
34586;BME280;20816;50.950;11.108;2022-11-15T10:41:55;97913.69;;;15.95;69.00
34586;BME280;20816;50.950;11.108;2022-11-15T10:44:28;97915.56;;;15.93;69.65
34586;BME280;20816;50.950;11.108;2022-11-15T10:49:29;97904.44;;;15.87;69.86
34586;BME280;20816;50.950;11.108;2022-11-15T10:54:48;97893.69;;;15.74;68.74
34586;BME280;20816;50.950;11.108;2022-11-15T10:57:22;97889.66;;;15.67;70.14
34586;BME280;20816;50.950;11.108;2022-11-15T11:05:39;97890.25;;;15.72;69.97
34586;BME280;20816;50.950;11.108;2022-11-15T11:10:38;97894.38;;;15.93;68.83
34586;BME280;20816;50.950;11.108;2022-11-15T11:13:44;97891.63;;;15.79;68.84
34586;BME280;20816;50.950;11.108;2022-11-15T11:24:18;97873.19;;;15.93;69.88
34586;BME280;20816;50.950;11.108;2022-11-15T11:29:45;97865.13;;;16.11;68.80
34586;BME280;20816;50.950;11.108;2022-11-15T11:32:40;97872.31;;;16.09;69.05
34586;BME280;20816;50.950;11.108;2022-11-15T11:38:06;97856.94;;;16.15;69.45
34586;BME280;20816;50.950;11.108;2022-11-15T11:46:21;97849.28;;;16.57;68.38
34586;BME280;20816;50.950;11.108;2022-11-15T11:48:57;97844.75;;;16.43;68.54
34586;BME280;20816;50.950;11.108;2022-11-15T11:51:37;97843.91;;;16.42;68.76
34586;BME280;20816;50.950;11.108;2022-11-15T11:54:12;97845.09;;;16.37;69.12
34586;BME280;20816;50.950;11.108;2022-11-15T11:56:43;97836.78;;;16.43;68.72
34586;BME280;20816;50.950;11.108;2022-11-15T11:59:43;97845.25;;;16.49;68.97
34586;BME280;20816;50.950;11.108;2022-11-15T12:02:40;97831.81;;;16.52;69.89
34586;BME280;20816;50.950;11.108;2022-11-15T12:05:27;97828.66;;;16.62;68.43
34586;BME280;20816;50.950;11.108;2022-11-15T12:08:03;97829.34;;;16.49;68.89
34586;BME280;20816;50.950;11.108;2022-11-15T12:10:32;97821.59;;;16.76;69.34
34586;BME280;20816;50.950;11.108;2022-11-15T12:13:05;97809.97;;;16.79;69.65
34586;BME280;20816;50.950;11.108;2022-11-15T12:15:43;97813.94;;;16.56;68.99
34586;BME280;20816;50.950;11.108;2022-11-15T12:18:14;97814.91;;;16.39;69.80
34586;BME280;20816;50.950;11.108;2022-11-15T12:20:51;97813.78;;;16.43;69.59
34586;BME280;20816;50.950;11.108;2022-11-15T12:23:49;97814.81;;;16.41;70.33
34586;BME280;20816;50.950;11.108;2022-11-15T12:26:20;97810.38;;;16.41;69.86
34586;BME280;20816;50.950;11.108;2022-11-15T12:34:43;97804.38;;;16.53;69.92
34586;BME280;20816;50.950;11.108;2022-11-15T12:40:23;97799.00;;;16.69;69.47
34586;BME280;20816;50.950;11.108;2022-11-15T12:43:37;97784.66;;;16.58;70.39
34586;BME280;20816;50.950;11.108;2022-11-15T12:45:52;97788.56;;;16.66;69.85
34586;BME280;20816;50.950;11.108;2022-11-15T13:12:00;97762.13;;;16.35;70.54
34586;BME280;20816;50.950;11.108;2022-11-15T13:20:00;97760.72;;;16.43;71.21
34586;BME280;20816;50.950;11.108;2022-11-15T13:22:38;97755.63;;;16.40;70.64
34586;BME280;20816;50.950;11.108;2022-11-15T13:33:38;97741.34;;;16.27;70.74
34586;BME280;20816;50.950;11.108;2022-11-15T13:36:09;97742.41;;;16.24;70.34
34586;BME280;20816;50.950;11.108;2022-11-15T13:38:40;97737.72;;;16.14;70.79
34586;BME280;20816;50.950;11.108;2022-11-15T13:43:44;97743.59;;;15.89;72.11
34586;BME280;20816;50.950;11.108;2022-11-15T13:46:15;97740.00;;;15.74;72.20
34586;BME280;20816;50.950;11.108;2022-11-15T13:48:43;97736.75;;;15.69;72.88
34586;BME280;20816;50.950;11.108;2022-11-15T13:51:24;97727.34;;;15.48;75.22
34586;BME280;20816;50.950;11.108;2022-11-15T13:53:59;97732.19;;;15.55;70.34
34586;BME280;20816;50.950;11.108;2022-11-15T13:56:28;97720.91;;;15.52;70.56
34586;BME280;20816;50.950;11.108;2022-11-15T13:58:58;97724.94;;;15.43;71.12
34586;BME280;20816;50.950;11.108;2022-11-15T14:01:27;97733.22;;;15.37;71.54
34586;BME280;20816;50.950;11.108;2022-11-15T14:03:58;97725.78;;;15.43;70.67
34586;BME280;20816;50.950;11.108;2022-11-15T14:06:27;97716.13;;;15.42;70.51
34586;BME280;20816;50.950;11.108;2022-11-15T14:09:37;97712.44;;;15.45;70.01
34586;BME280;20816;50.950;11.108;2022-11-15T14:12:32;97709.81;;;15.45;68.42
34586;BME280;20816;50.950;11.108;2022-11-15T14:15:02;97700.34;;;15.41;67.91
34586;BME280;20816;50.950;11.108;2022-11-15T14:17:44;97698.78;;;15.37;66.79
34586;BME280;20816;50.950;11.108;2022-11-15T14:22:56;97698.63;;;15.24;66.20
34586;BME280;20816;50.950;11.108;2022-11-15T14:25:52;97696.84;;;15.25;65.97
34586;BME280;20816;50.950;11.108;2022-11-15T14:30:56;97698.44;;;15.11;67.06
34586;BME280;20816;50.950;11.108;2022-11-15T14:33:28;97698.69;;;15.07;66.45
34586;BME280;20816;50.950;11.108;2022-11-15T14:35:57;97697.56;;;15.11;66.48
34586;BME280;20816;50.950;11.108;2022-11-15T14:38:29;97696.19;;;15.04;66.70
34586;BME280;20816;50.950;11.108;2022-11-15T14:40:56;97686.56;;;15.03;67.33
34586;BME280;20816;50.950;11.108;2022-11-15T14:43:24;97686.88;;;14.97;67.59
34586;BME280;20816;50.950;11.108;2022-11-15T14:45:53;97687.16;;;14.92;68.69
34586;BME280;20816;50.950;11.108;2022-11-15T14:48:20;97680.06;;;14.93;68.69
34586;BME280;20816;50.950;11.108;2022-11-15T14:50:46;97685.06;;;14.81;69.13
34586;BME280;20816;50.950;11.108;2022-11-15T14:53:15;97678.06;;;14.80;69.70
34586;BME280;20816;50.950;11.108;2022-11-15T14:55:43;97680.34;;;14.71;70.41
34586;BME280;20816;50.950;11.108;2022-11-15T14:58:10;97676.84;;;14.70;70.84
34586;BME280;20816;50.950;11.108;2022-11-15T15:00:39;97677.34;;;14.61;71.04
34586;BME280;20816;50.950;11.108;2022-11-15T15:03:06;97673.97;;;14.57;71.53
34586;BME280;20816;50.950;11.108;2022-11-15T15:08:02;97679.53;;;14.53;72.84
34586;BME280;20816;50.950;11.108;2022-11-15T15:10:34;97671.13;;;14.45;73.26
34586;BME280;20816;50.950;11.108;2022-11-15T15:13:16;97672.06;;;14.44;73.55
34586;BME280;20816;50.950;11.108;2022-11-15T15:15:44;97677.75;;;14.36;74.51
34586;BME280;20816;50.950;11.108;2022-11-15T15:18:11;97671.53;;;14.20;74.78
34586;BME280;20816;50.950;11.108;2022-11-15T15:20:39;97674.72;;;14.26;75.41
34586;BME280;20816;50.950;11.108;2022-11-15T15:23:18;97668.63;;;14.24;75.41
34586;BME280;20816;50.950;11.108;2022-11-15T15:25:46;97664.94;;;14.11;76.07
34586;BME280;20816;50.950;11.108;2022-11-15T15:28:15;97670.31;;;14.10;76.08
34586;BME280;20816;50.950;11.108;2022-11-15T15:30:42;97664.00;;;14.12;76.69
34586;BME280;20816;50.950;11.108;2022-11-15T15:33:09;97661.75;;;14.05;77.00